Overview Statistics Trail Chart Weather Telemetry Raw packets
 

This is the latest recevied weather packets stored in our database for station/object OK2ZAW-19. If no packets are shown the sender has not sent any weather packets the latest 10 day(s).

<< 1 2 3 4 >>
Time Temp. Humidity Pressure Rain* Wind** Luminosity Snow
1788566922 16.67° C 10% - - - - -
1788566300 17.22° C 10% - - - - -
1788565988 17.78° C 10% - - - - -
1788565677 18.33° C 10% - - - - -
1788565366 18.89° C 98% 1015 hPa - - 337 W/m² -
1788565055 18.89° C 94% 1014.7 hPa - - 338 W/m² -
1788564433 18.89° C 92% 1014.4 hPa - - 338 W/m² -
1788564121 18.89° C 91% 1014.4 hPa - - 337 W/m² -
1788563810 19.44° C 90% 1014.4 hPa - - 338 W/m² -
1788563499 19.44° C 90% 1014.4 hPa - - 338 W/m² -
1788563187 19.44° C 90% 1014.4 hPa - - 338 W/m² -
1788562876 19.44° C 89% 1014.4 hPa - - 337 W/m² -
1788562565 19.44° C 89% 1014.2 hPa - - 337 W/m² -
1788562254 19.44° C 90% 1014.3 hPa - - 337 W/m² -
1788561942 19.44° C 90% 1014.3 hPa - - 337 W/m² -
1788561631 19.44° C 90% 1014.3 hPa - - 337 W/m² -
1788561320 18.89° C 90% 1014.4 hPa - - 338 W/m² -
1788561009 18.89° C 91% 1014.4 hPa - - 337 W/m² -
1788560697 18.89° C 90% 1014.4 hPa - - 337 W/m² -
1788560386 18.89° C 90% 1014.4 hPa - - 338 W/m² -
1788560075 18.89° C 89% 1014.4 hPa - - 337 W/m² -
1788559764 19.44° C 87% 1014.4 hPa - - 337 W/m² -
1788559452 19.44° C 87% 1014.4 hPa - - 337 W/m² -
1788558830 19.44° C 84% 1014.3 hPa - - 337 W/m² -
1788558519 19.44° C 83% 1014.3 hPa - - 337 W/m² -

* Rain since midnight (hover to see other rain measurements)
** Current wind speed in m/s (hover to see current wind gust speed)